Time;durP1;ratioP1;P1;durP2;ratioP2;P2;SDS_P1;SDS_P2;PMS_P1;PMS_P2;Temp;Humidity;BMP_temperature;BMP_pressure;BME280_temperature;BME280_humidity;BME280_pressure;Samples;Min_cycle;Max_cycle;Signal;HPM_P1;HPM_P2
2024/03/19 00:01:44;;;;;;;4.45;3.08;;;;;;;11.83;50.29;94514.34;5105001;28;20058;-81
2024/03/19 00:04:09;;;;;;;3.13;2.03;;;;;;;11.83;50.61;94511.59;5103280;28;20051;-81
2024/03/19 00:06:34;;;;;;;3.15;1.92;;;;;;;11.72;50.75;94516.72;5106216;28;20051;-81
2024/03/19 00:09:01;;;;;;;4.20;2.00;;;;;;;11.55;51.43;94511.47;5102546;28;20398;-82
2024/03/19 00:11:26;;;;;;;3.83;2.20;;;;;;;11.49;51.59;94518.00;5105379;28;20097;-81
2024/03/19 00:13:52;;;;;;;5.15;2.28;;;;;;;11.48;52.03;94511.75;5114940;28;20425;-81
2024/03/19 00:16:18;;;;;;;3.35;2.72;;;;;;;11.45;51.62;94507.13;5103974;28;20503;-82
2024/03/19 00:18:43;;;;;;;4.72;2.58;;;;;;;11.48;51.72;94511.75;5105466;28;20465;-81
2024/03/19 00:21:12;;;;;;;5.88;2.78;;;;;;;11.46;52.34;94513.41;5102958;28;20031;-82
2024/03/19 00:23:37;;;;;;;7.95;2.67;;;;;;;11.27;52.68;94510.56;5104790;28;20027;-81
2024/03/19 00:26:05;;;;;;;5.32;2.67;;;;;;;11.28;52.88;94506.59;5102583;28;20402;-81
2024/03/19 00:28:31;;;;;;;5.03;2.55;;;;;;;11.38;53.20;94504.66;5087430;28;20040;-80
2024/03/19 00:30:56;;;;;;;4.53;3.03;;;;;;;11.32;53.28;94495.47;5102019;28;20016;-81
2024/03/19 00:33:22;;;;;;;4.65;2.75;;;;;;;11.38;53.39;94493.66;5105396;28;20481;-81
2024/03/19 00:35:47;;;;;;;6.20;2.78;;;;;;;11.45;53.50;94493.38;5103589;28;20020;-82
2024/03/19 00:38:13;;;;;;;4.85;2.63;;;;;;;11.43;53.56;94491.09;5086353;28;20073;-80
2024/03/19 00:40:39;;;;;;;6.57;2.50;;;;;;;11.46;53.24;94489.41;5104108;28;20114;-80
2024/03/19 00:43:04;;;;;;;10.30;3.28;;;;;;;11.50;53.39;94483.75;5102365;28;20066;-80
2024/03/19 00:45:30;;;;;;;5.63;2.92;;;;;;;11.50;53.58;94484.53;5104269;28;20055;-80
2024/03/19 00:47:55;;;;;;;5.88;2.85;;;;;;;11.51;53.62;94483.31;5102139;28;20027;-80
2024/03/19 00:50:21;;;;;;;7.63;2.90;;;;;;;11.54;53.56;94490.66;5103957;28;20015;-80
2024/03/19 00:52:47;;;;;;;8.50;3.30;;;;;;;11.54;53.66;94490.66;5102725;28;20497;-79
2024/03/19 00:55:12;;;;;;;5.25;2.92;;;;;;;11.54;53.68;94485.16;5086264;28;20019;-79
2024/03/19 00:57:38;;;;;;;5.90;3.30;;;;;;;11.57;53.27;94487.00;5103663;28;20036;-81
2024/03/19 01:00:14;;;;;;;6.53;2.83;;;;;;;11.57;53.48;94484.22;5104015;28;20114;-81
2024/03/19 01:02:43;;;;;;;6.78;3.10;;;;;;;11.60;53.29;94486.09;5105668;28;20119;-79
2024/03/19 01:05:11;;;;;;;9.00;3.17;;;;;;;11.57;53.56;94481.47;5085222;28;20067;-81
2024/03/19 01:07:41;;;;;;;4.00;2.80;;;;;;;11.55;53.46;94483.94;5103430;28;20028;-80
2024/03/19 01:10:10;;;;;;;5.53;2.90;;;;;;;11.59;53.51;94481.06;5102329;28;20418;-80
2024/03/19 01:12:36;;;;;;;6.53;3.35;;;;;;;11.58;53.68;94485.75;5103339;28;20490;-80
2024/03/19 01:15:02;;;;;;;8.32;4.03;;;;;;;11.59;54.73;94481.06;5086448;28;20430;-81
2024/03/19 01:17:28;;;;;;;9.00;4.15;;;;;;;11.57;55.86;94478.72;5102240;28;20117;-81
2024/03/19 01:19:53;;;;;;;6.72;4.10;;;;;;;11.56;56.34;94476.44;5086978;28;20031;-80
2024/03/19 01:22:19;;;;;;;9.95;3.72;;;;;;;11.58;56.56;94474.75;5110064;28;20061;-81
2024/03/19 01:24:45;;;;;;;9.45;4.15;;;;;;;11.52;57.07;94465.56;5107031;28;20478;-80
2024/03/19 01:27:11;;;;;;;6.60;3.70;;;;;;;11.53;57.11;94475.38;5102103;28;20032;-81
2024/03/19 01:29:37;;;;;;;9.02;3.65;;;;;;;11.51;57.22;94474.28;5103183;28;20039;-80
2024/03/19 01:32:04;;;;;;;6.70;2.90;;;;;;;11.43;57.44;94466.31;5102737;28;20106;-80
2024/03/19 01:34:29;;;;;;;5.97;3.20;;;;;;;11.46;57.47;94464.63;5102540;28;20031;-81
2024/03/19 01:36:54;;;;;;;5.55;3.45;;;;;;;11.41;57.74;94466.00;5103370;28;20232;-82
2024/03/19 01:39:22;;;;;;;5.28;2.92;;;;;;;11.43;57.77;94457.28;5103359;28;20033;-81
2024/03/19 01:41:49;;;;;;;5.40;3.55;;;;;;;11.31;58.11;94460.91;5103699;28;20098;-79
2024/03/19 01:44:18;;;;;;;4.75;3.25;;;;;;;11.27;58.03;94460.28;5106184;28;20452;-81
2024/03/19 01:46:46;;;;;;;6.22;3.40;;;;;;;11.30;57.82;94451.13;5107128;28;20060;-80
2024/03/19 01:49:14;;;;;;;7.25;3.97;;;;;;;11.24;57.62;94450.97;5089466;28;20044;-80
2024/03/19 01:51:40;;;;;;;6.88;3.58;;;;;;;11.18;57.81;94447.25;5107695;28;20543;-81
2024/03/19 01:54:06;;;;;;;7.03;4.00;;;;;;;11.27;57.47;94444.53;5106953;28;20538;-80
2024/03/19 01:56:31;;;;;;;7.93;3.80;;;;;;;11.20;57.50;94439.31;5106803;28;20103;-81
2024/03/19 01:58:58;;;;;;;7.97;3.92;;;;;;;11.21;57.86;94445.59;5106763;28;20426;-79
2024/03/19 02:01:23;;;;;;;7.03;4.18;;;;;;;11.20;57.61;94438.56;5105619;28;20028;-80
2024/03/19 02:03:49;;;;;;;5.40;3.55;;;;;;;11.20;57.62;94439.31;5108238;28;20382;-81
2024/03/19 02:06:15;;;;;;;7.00;4.35;;;;;;;11.21;57.79;94442.84;5105575;28;20019;-80
2024/03/19 02:09:03;;;;;;;6.22;3.95;;;;;;;11.17;57.87;94445.72;5107229;28;20027;-83
2024/03/19 02:11:32;;;;;;;7.32;4.30;;;;;;;11.17;57.88;94437.47;5089735;28;20424;-81
2024/03/19 02:13:59;;;;;;;5.30;3.65;;;;;;;11.14;58.01;94438.38;5105007;28;20046;-79
2024/03/19 02:16:24;;;;;;;6.70;3.97;;;;;;;11.16;58.18;94430.44;5106585;28;20040;-81
2024/03/19 02:19:05;;;;;;;6.47;4.18;;;;;;;11.18;58.27;94436.25;5105369;28;20481;-80
2024/03/19 02:21:32;;;;;;;8.00;4.57;;;;;;;11.17;57.86;94429.22;5107378;28;20442;-82
2024/03/19 02:23:58;;;;;;;7.00;4.45;;;;;;;11.19;57.81;94434.28;5106310;28;20107;-80
2024/03/19 02:26:26;;;;;;;7.90;4.88;;;;;;;11.20;57.75;94433.81;5106518;28;20461;-82
2024/03/19 02:28:52;;;;;;;7.63;4.53;;;;;;;11.11;57.77;94428.25;5106634;28;20055;-79
2024/03/19 02:31:17;;;;;;;8.20;4.78;;;;;;;11.12;58.24;94427.81;5109272;28;20075;-81
2024/03/19 02:33:43;;;;;;;7.50;4.30;;;;;;;11.11;57.99;94437.28;5114972;28;20019;-80
2024/03/19 02:36:08;;;;;;;6.57;4.63;;;;;;;11.09;57.64;94433.47;5087179;28;20114;-81
2024/03/19 02:38:34;;;;;;;6.18;4.63;;;;;;;11.02;57.71;94436.50;5107089;28;20080;-81
2024/03/19 02:40:59;;;;;;;6.03;3.78;;;;;;;11.03;57.84;94440.78;5106549;27;20034;-81
2024/03/19 02:43:24;;;;;;;5.80;3.58;;;;;;;11.06;58.08;94450.84;5107076;28;20019;-80
2024/03/19 02:45:50;;;;;;;5.50;4.15;;;;;;;11.00;58.12;94447.16;5107531;28;20409;-81
2024/03/19 02:48:18;;;;;;;6.82;4.03;;;;;;;11.03;58.20;94449.03;5104271;28;20031;-81
2024/03/19 02:50:45;;;;;;;6.43;4.32;;;;;;;11.02;58.40;94450.25;5106423;28;20049;-81
2024/03/19 02:53:11;;;;;;;5.20;4.00;;;;;;;10.94;58.31;94446.97;5104088;28;20028;-81
2024/03/19 02:55:36;;;;;;;6.47;4.43;;;;;;;10.93;58.28;94450.97;5105492;28;20089;-80
2024/03/19 02:58:01;;;;;;;7.13;4.63;;;;;;;10.86;58.03;94435.50;5104420;28;20115;-79
2024/03/19 03:00:27;;;;;;;6.07;4.03;;;;;;;10.89;58.30;94451.09;5105036;28;20024;-80
2024/03/19 03:02:52;;;;;;;6.97;4.30;;;;;;;10.85;58.50;94444.97;5105380;28;20035;-81
2024/03/19 03:05:17;;;;;;;6.40;3.95;;;;;;;10.81;58.64;94447.06;5105332;28;20103;-80
2024/03/19 03:07:43;;;;;;;5.18;4.10;;;;;;;10.80;58.83;94439.28;5106959;28;20118;-79
2024/03/19 03:10:08;;;;;;;6.75;4.30;;;;;;;10.83;58.99;94441.13;5103587;28;20031;-80
2024/03/19 03:12:34;;;;;;;5.75;4.10;;;;;;;10.84;59.14;94442.69;5105630;28;20028;-81
2024/03/19 03:14:59;;;;;;;7.22;4.03;;;;;;;10.85;59.38;94455.97;5086937;28;20035;-79
2024/03/19 03:17:25;;;;;;;8.23;4.35;;;;;;;10.82;59.27;94445.09;5087780;28;20130;-79
2024/03/19 03:19:50;;;;;;;7.82;4.65;;;;;;;10.86;59.38;94443.75;5106002;28;20076;-79
2024/03/19 03:22:16;;;;;;;7.20;4.25;;;;;;;10.91;59.16;94450.66;5104365;28;20020;-81
2024/03/19 03:24:41;;;;;;;7.72;4.32;;;;;;;10.95;59.33;94450.50;5105850;28;20111;-82
2024/03/19 03:27:06;;;;;;;8.23;4.15;;;;;;;10.88;59.50;94438.56;5103525;28;20043;-80
2024/03/19 03:29:32;;;;;;;6.47;4.00;;;;;;;10.83;59.75;94439.13;5106845;28;20019;-80
2024/03/19 03:31:57;;;;;;;8.07;4.47;;;;;;;10.83;59.65;94441.88;5103404;28;20077;-81
2024/03/19 03:34:24;;;;;;;7.38;4.15;;;;;;;10.80;59.56;94445.56;5106321;28;20023;-80
2024/03/19 03:36:49;;;;;;;8.07;5.07;;;;;;;10.88;59.20;94440.53;5103899;28;20131;-82
2024/03/19 03:39:15;;;;;;;8.25;5.22;;;;;;;10.85;59.29;94444.97;5104595;28;20114;-82
2024/03/19 03:41:42;;;;;;;8.77;5.32;;;;;;;10.85;59.43;94452.44;5115665;28;20024;-81
2024/03/19 03:44:08;;;;;;;7.82;5.47;;;;;;;10.83;59.63;94443.88;5105175;28;20015;-81
2024/03/19 03:46:33;;;;;;;9.43;5.85;;;;;;;10.82;59.81;94448.59;5105427;28;20059;-82
2024/03/19 03:48:59;;;;;;;6.53;4.63;;;;;;;10.74;59.91;94447.34;5102999;28;20513;-81
2024/03/19 03:51:24;;;;;;;10.25;6.32;;;;;;;10.75;60.02;94442.63;5104907;28;20036;-81
2024/03/19 03:53:49;;;;;;;9.57;6.30;;;;;;;10.80;60.11;94455.78;5104932;28;20107;-82
2024/03/19 03:56:15;;;;;;;12.30;6.55;;;;;;;10.81;60.28;94462.81;5105320;28;20106;-81
2024/03/19 03:58:41;;;;;;;8.77;6.18;;;;;;;10.83;60.29;94461.13;5104007;28;20112;-79
2024/03/19 04:01:09;;;;;;;8.45;5.80;;;;;;;10.73;60.74;94453.31;5086327;28;20124;-80
2024/03/19 04:03:34;;;;;;;9.40;5.78;;;;;;;10.74;60.85;94457.59;5104700;28;20634;-81
2024/03/19 04:06:00;;;;;;;7.75;5.15;;;;;;;10.78;60.19;94463.69;5084899;28;20110;-80
2024/03/19 04:08:26;;;;;;;7.75;4.88;;;;;;;10.62;60.60;94459.19;5104392;28;20027;-83
2024/03/19 04:10:51;;;;;;;7.63;5.28;;;;;;;10.51;60.82;94445.84;5102854;28;20028;-80
2024/03/19 04:13:17;;;;;;;6.80;5.10;;;;;;;10.53;60.96;94459.13;5104126;28;20030;-81
2024/03/19 04:15:42;;;;;;;8.80;4.70;;;;;;;10.54;61.20;94463.41;5104559;28;20038;-80
2024/03/19 04:18:07;;;;;;;8.93;5.22;;;;;;;10.49;61.27;94456.50;5103596;28;20027;-79
2024/03/19 04:20:34;;;;;;;9.63;4.97;;;;;;;10.49;61.28;94461.22;5104155;28;20015;-81
2024/03/19 04:22:59;;;;;;;8.10;5.38;;;;;;;10.46;61.36;94453.88;5102867;28;20031;-81
2024/03/19 04:25:25;;;;;;;8.93;5.10;;;;;;;10.45;61.47;94460.59;5087776;28;20142;-80
2024/03/19 04:27:50;;;;;;;9.05;5.25;;;;;;;10.42;61.55;94456.75;5102432;28;20094;-83
2024/03/19 04:30:16;;;;;;;10.77;5.28;;;;;;;10.45;61.74;94471.59;5104151;28;20028;-81
2024/03/19 04:32:41;;;;;;;8.40;5.35;;;;;;;10.43;61.51;94472.03;5103029;28;20040;-81
2024/03/19 04:35:07;;;;;;;8.95;5.03;;;;;;;10.48;61.55;94474.19;5105122;28;20028;-80
2024/03/19 04:37:33;;;;;;;10.45;5.32;;;;;;;10.51;61.69;94473.31;5086919;28;20027;-80
2024/03/19 04:39:58;;;;;;;10.32;5.13;;;;;;;10.55;61.27;94473.16;5104932;28;20027;-81
2024/03/19 04:42:24;;;;;;;9.68;5.72;;;;;;;10.56;60.78;94472.75;5105507;28;20063;-80
2024/03/19 04:44:49;;;;;;;9.50;5.10;;;;;;;10.61;59.87;94479.66;5104048;28;20020;-81
2024/03/19 04:47:17;;;;;;;8.38;4.32;;;;;;;10.49;59.98;94477.72;5104124;28;20046;-80
2024/03/19 04:49:43;;;;;;;8.30;4.20;;;;;;;10.46;59.85;94471.13;5105788;28;20034;-82
2024/03/19 04:52:09;;;;;;;7.35;4.50;;;;;;;10.40;60.08;94469.41;5110996;28;20946;-81
2024/03/19 04:54:34;;;;;;;10.25;4.43;;;;;;;10.42;59.99;94483.47;5086281;28;20050;-80
2024/03/19 04:57:00;;;;;;;7.70;4.55;;;;;;;10.51;59.99;94489.81;5103336;28;20054;-80
2024/03/19 04:59:25;;;;;;;7.85;4.65;;;;;;;10.51;59.86;94480.78;5103826;28;20039;-82
2024/03/19 05:01:51;;;;;;;8.07;4.82;;;;;;;10.44;60.16;94492.03;5102721;28;20478;-80
2024/03/19 05:04:16;;;;;;;5.85;4.22;;;;;;;10.40;60.40;94489.41;5103901;28;20110;-80
2024/03/19 05:06:42;;;;;;;7.97;5.35;;;;;;;10.33;60.73;94487.69;5103553;28;20478;-81
2024/03/19 05:09:07;;;;;;;7.03;5.20;;;;;;;10.33;60.95;94484.94;5103128;28;20087;-81
2024/03/19 05:11:33;;;;;;;7.15;5.18;;;;;;;10.35;61.14;94496.25;5102739;28;20031;-80
2024/03/19 05:13:58;;;;;;;7.82;5.10;;;;;;;10.36;60.79;94488.75;5103637;28;20107;-80
2024/03/19 05:16:24;;;;;;;7.25;5.30;;;;;;;10.31;61.18;94492.84;5089906;28;20418;-79
2024/03/19 05:18:49;;;;;;;6.38;4.88;;;;;;;10.38;61.44;94500.09;5094793;28;20600;-80
2024/03/19 05:21:14;;;;;;;6.43;4.82;;;;;;;10.39;61.29;94504.38;5099405;28;20028;-81
2024/03/19 05:23:40;;;;;;;8.60;5.35;;;;;;;10.33;61.69;94501.44;5094841;28;20335;-81
2024/03/19 05:26:07;;;;;;;5.80;4.38;;;;;;;10.40;61.46;94505.91;5099029;28;20026;-80
2024/03/19 05:28:32;;;;;;;5.60;4.28;;;;;;;10.43;61.53;94512.47;5095900;28;20028;-80
2024/03/19 05:30:58;;;;;;;7.22;4.40;;;;;;;10.45;61.80;94521.81;5099030;28;20493;-80
2024/03/19 05:33:25;;;;;;;6.13;4.50;;;;;;;10.38;62.06;94519.34;5080498;28;20434;-80
2024/03/19 05:35:50;;;;;;;7.80;5.00;;;;;;;10.43;62.02;94517.97;5096685;28;20055;-80
2024/03/19 05:38:15;;;;;;;6.57;4.72;;;;;;;10.42;62.12;94516.44;5097048;28;20108;-79
2024/03/19 05:40:41;;;;;;;5.85;4.60;;;;;;;10.45;62.18;94524.56;5094876;28;20020;-80
2024/03/19 05:43:07;;;;;;;5.78;4.57;;;;;;;10.48;62.17;94528.41;5098213;28;20024;-80
2024/03/19 05:45:33;;;;;;;7.07;4.70;;;;;;;10.47;62.54;94526.88;5097385;28;20106;-79
2024/03/19 05:47:59;;;;;;;8.75;4.93;;;;;;;10.38;62.66;94530.31;5094796;28;20024;-78
2024/03/19 05:50:24;;;;;;;7.55;5.55;;;;;;;10.34;62.79;94529.66;5095316;28;20042;-79
2024/03/19 05:52:50;;;;;;;9.38;5.93;;;;;;;10.23;63.62;94535.53;5097743;28;20166;-79
2024/03/19 05:55:15;;;;;;;7.78;6.10;;;;;;;10.23;63.44;94534.72;5094806;28;20020;-79
2024/03/19 05:57:41;;;;;;;7.57;5.53;;;;;;;10.19;63.87;94534.06;5094417;28;20107;-79
2024/03/19 06:00:06;;;;;;;7.95;5.43;;;;;;;10.15;64.04;94539.69;5105819;28;20401;-79
2024/03/19 06:02:32;;;;;;;9.77;5.95;;;;;;;10.23;63.80;94537.47;5094761;28;20201;-79
2024/03/19 06:04:58;;;;;;;9.13;5.57;;;;;;;10.24;63.87;94541.78;5096447;28;20457;-81
2024/03/19 06:07:23;;;;;;;9.77;6.10;;;;;;;10.21;64.25;94534.41;5095869;28;20914;-79
2024/03/19 06:09:48;;;;;;;8.45;6.28;;;;;;;10.19;64.34;94537.59;5095681;28;20024;-79
2024/03/19 06:12:14;;;;;;;8.30;6.07;;;;;;;10.20;64.54;94544.59;5076684;28;20027;-80
2024/03/19 06:14:40;;;;;;;9.32;6.13;;;;;;;10.20;64.27;94541.09;5097493;28;20019;-80
2024/03/19 06:17:06;;;;;;;7.43;6.13;;;;;;;10.19;64.39;94545.81;5078631;28;20032;-80
2024/03/19 06:19:32;;;;;;;8.00;5.90;;;;;;;10.23;64.27;94542.97;5101852;28;20032;-80
2024/03/19 06:21:58;;;;;;;7.75;5.97;;;;;;;10.22;64.11;94547.69;5106993;28;20035;-80
2024/03/19 06:24:23;;;;;;;8.52;6.22;;;;;;;10.18;63.98;94538.81;5104676;28;20077;-80
2024/03/19 06:26:49;;;;;;;9.50;6.80;;;;;;;10.15;63.78;94544.41;5089509;28;20093;-79
2024/03/19 06:29:14;;;;;;;10.60;6.78;;;;;;;10.10;63.87;94551.25;5103923;28;20510;-79
2024/03/19 06:31:39;;;;;;;10.48;7.88;;;;;;;10.03;63.93;94545.97;5107347;27;20061;-81
2024/03/19 06:34:05;;;;;;;12.10;7.82;;;;;;;10.01;64.17;94557.41;5088554;28;20072;-79
2024/03/19 06:36:30;;;;;;;8.65;7.07;;;;;;;9.95;64.24;94545.44;5105000;28;20585;-79
2024/03/19 06:38:56;;;;;;;9.25;7.50;;;;;;;9.91;64.11;94564.00;5106311;28;20111;-79
2024/03/19 06:41:22;;;;;;;10.57;8.07;;;;;;;9.84;64.40;94561.50;5083280;28;20054;-79
2024/03/19 06:43:47;;;;;;;10.75;6.97;;;;;;;9.88;63.93;94570.38;5087341;28;20024;-79
2024/03/19 06:46:13;;;;;;;8.40;6.85;;;;;;;9.86;64.21;94570.03;5085311;28;20055;-78
2024/03/19 06:48:45;;;;;;;9.63;6.85;;;;;;;9.86;64.29;94564.56;5088754;28;20036;-77
2024/03/19 06:51:10;;;;;;;10.70;7.53;;;;;;;9.86;64.07;94578.28;5089627;28;20402;-79
2024/03/19 06:53:35;;;;;;;11.75;7.40;;;;;;;9.88;64.03;94575.13;5095796;28;20102;-78
2024/03/19 06:56:07;;;;;;;9.88;7.18;;;;;;;9.88;63.31;94578.63;5103530;28;20115;-79
2024/03/19 06:58:33;;;;;;;9.43;7.18;;;;;;;9.85;63.10;94587.72;5096912;28;20114;-81
2024/03/19 07:00:58;;;;;;;8.35;6.85;;;;;;;9.83;63.64;94579.94;5096397;28;20096;-82
2024/03/19 07:03:23;;;;;;;11.27;6.78;;;;;;;9.79;63.74;94584.75;5093940;28;20051;-81
2024/03/19 07:05:50;;;;;;;10.45;7.22;;;;;;;9.82;63.71;94588.63;5092425;28;20020;-80
2024/03/19 07:08:16;;;;;;;10.88;7.20;;;;;;;9.85;63.87;94585.75;5075672;28;20039;-79
2024/03/19 07:10:41;;;;;;;10.55;7.82;;;;;;;9.80;64.16;94591.78;5067851;28;20028;-79
2024/03/19 07:13:07;;;;;;;13.70;7.53;;;;;;;9.85;64.31;94593.22;5086075;28;20115;-79
2024/03/19 07:15:32;;;;;;;10.65;7.55;;;;;;;9.92;64.38;94597.72;5084614;28;20416;-79
2024/03/19 07:17:58;;;;;;;11.57;7.68;;;;;;;9.88;64.52;94608.06;5086649;28;20532;-80
2024/03/19 07:20:24;;;;;;;10.75;9.02;;;;;;;9.83;64.08;94606.63;5083292;28;20020;-78
2024/03/19 07:22:50;;;;;;;12.95;8.63;;;;;;;9.85;64.08;94612.44;5086381;28;20110;-78
2024/03/19 07:25:16;;;;;;;11.43;8.60;;;;;;;9.85;64.37;94607.72;5082952;28;20035;-79
2024/03/19 07:27:42;;;;;;;12.35;8.55;;;;;;;9.82;64.23;94619.59;5095107;28;20019;-80
2024/03/19 07:30:09;;;;;;;15.13;8.82;;;;;;;9.79;64.09;94617.72;5099262;28;20028;-79
2024/03/19 07:32:35;;;;;;;9.80;7.40;;;;;;;9.85;64.09;94621.44;5103973;28;20028;-79
2024/03/19 07:35:02;;;;;;;10.43;7.93;;;;;;;9.79;63.15;94622.44;5083601;28;20064;-78
2024/03/19 07:37:27;;;;;;;10.45;7.30;;;;;;;9.73;62.97;94624.19;5102934;28;20033;-79
2024/03/19 07:39:56;;;;;;;11.23;6.97;;;;;;;9.66;63.32;94627.91;5087840;28;20028;-80
2024/03/19 07:42:22;;;;;;;9.55;7.88;;;;;;;9.64;63.37;94632.31;5103025;28;20035;-80
2024/03/19 07:44:47;;;;;;;10.50;7.82;;;;;;;9.70;62.98;94639.56;5092820;28;20020;-79
2024/03/19 07:47:13;;;;;;;11.52;7.97;;;;;;;9.65;62.75;94634.63;5102514;28;20031;-80
2024/03/19 07:49:39;;;;;;;10.80;7.85;;;;;;;9.65;62.59;94645.59;5103948;28;20024;-80
2024/03/19 07:52:04;;;;;;;11.13;7.57;;;;;;;9.53;62.03;94646.34;5105206;28;20492;-79
2024/03/19 07:54:30;;;;;;;8.65;6.82;;;;;;;9.53;61.58;94649.88;5104305;28;20482;-80
2024/03/19 07:56:56;;;;;;;11.93;7.18;;;;;;;9.34;61.90;94653.53;5106255;28;20153;-81
2024/03/19 07:59:21;;;;;;;11.90;6.70;;;;;;;9.29;62.28;94659.59;5071885;28;20190;-81
2024/03/19 08:01:49;;;;;;;9.85;6.72;;;;;;;9.27;62.68;94662.75;5092806;28;20033;-81
2024/03/19 08:04:15;;;;;;;10.93;6.55;;;;;;;9.21;62.46;94661.75;5075884;28;20358;-81
2024/03/19 08:06:40;;;;;;;13.50;8.20;;;;;;;9.18;62.86;94670.84;5093536;28;20023;-83
2024/03/19 08:09:06;;;;;;;10.65;7.40;;;;;;;9.09;62.68;94669.94;5105156;28;20038;-82
2024/03/19 08:11:31;;;;;;;10.93;7.05;;;;;;;9.10;62.89;94668.72;5104409;28;20019;-82
2024/03/19 08:13:57;;;;;;;9.90;6.45;;;;;;;9.02;62.10;94674.41;5092552;28;20035;-83
2024/03/19 08:16:22;;;;;;;10.60;7.00;;;;;;;8.94;62.30;94666.81;5102355;28;20043;-81
2024/03/19 08:18:48;;;;;;;11.00;7.10;;;;;;;8.85;62.50;94677.63;5105851;28;20020;-80
2024/03/19 08:21:15;;;;;;;9.60;6.95;;;;;;;8.71;62.53;94665.81;5104310;28;20043;-81
2024/03/19 08:23:46;;;;;;;8.80;7.15;;;;;;;8.70;62.47;94680.72;5105438;28;20023;-79
2024/03/19 08:26:14;;;;;;;10.75;7.10;;;;;;;8.68;62.54;94685.88;5104762;28;20117;-80
2024/03/19 08:28:40;;;;;;;12.02;7.72;;;;;;;8.70;62.89;94688.19;5103221;28;20035;-81
2024/03/19 08:31:07;;;;;;;10.85;7.70;;;;;;;8.71;62.76;94682.25;5104366;28;20028;-81
2024/03/19 08:33:33;;;;;;;15.10;8.27;;;;;;;8.75;62.80;94685.69;5092776;28;20465;-81
2024/03/19 08:35:58;;;;;;;10.50;7.60;;;;;;;8.83;63.11;94688.25;5092752;28;20087;-82
2024/03/19 08:38:24;;;;;;;10.38;7.22;;;;;;;8.77;62.38;94688.78;5084621;28;20028;-81
2024/03/19 08:40:49;;;;;;;6.47;5.57;;;;;;;8.62;61.08;94675.88;5085282;28;20035;-80
2024/03/19 08:43:14;;;;;;;9.90;6.40;;;;;;;8.62;60.84;94690.34;5082595;28;20207;-83
2024/03/19 08:45:40;;;;;;;6.63;5.55;;;;;;;8.62;59.99;94692.31;5083073;28;20033;-82
2024/03/19 08:48:06;;;;;;;9.70;6.68;;;;;;;8.58;60.55;94677.94;5086462;28;20036;-82
2024/03/19 08:50:31;;;;;;;9.57;6.05;;;;;;;8.65;60.31;94691.44;5083590;28;20054;-80
2024/03/19 08:52:56;;;;;;;8.82;5.28;;;;;;;8.69;60.59;94687.41;5086727;28;20115;-82
2024/03/19 08:55:22;;;;;;;9.25;6.50;;;;;;;8.70;60.17;94686.22;5087832;28;20144;-81
2024/03/19 08:57:47;;;;;;;9.90;6.32;;;;;;;8.70;59.19;94699.91;5087746;28;20474;-80
2024/03/19 09:00:17;;;;;;;7.70;5.28;;;;;;;8.72;58.14;94696.75;5069336;28;20024;-80
2024/03/19 09:02:44;;;;;;;6.82;5.05;;;;;;;8.72;58.60;94700.28;5087360;28;20056;-81
2024/03/19 09:05:09;;;;;;;7.95;5.18;;;;;;;8.75;58.62;94690.41;5087318;28;20068;-82
2024/03/19 09:07:37;;;;;;;7.03;5.15;;;;;;;8.66;58.34;94684.75;5086425;28;20672;-82
2024/03/19 09:10:03;;;;;;;17.58;7.32;;;;;;;8.75;58.41;94691.16;5087578;28;20116;-81
2024/03/19 09:12:29;;;;;;;7.97;5.05;;;;;;;8.73;58.46;94696.31;5086081;28;20020;-80
2024/03/19 09:14:54;;;;;;;9.63;5.97;;;;;;;8.75;59.25;94699.38;5087737;28;20024;-82
2024/03/19 09:17:19;;;;;;;8.35;5.75;;;;;;;8.87;59.36;94700.66;5067577;28;20036;-82
2024/03/19 09:19:45;;;;;;;8.70;6.32;;;;;;;8.91;59.00;94704.09;5093192;28;20032;-82
2024/03/19 09:22:10;;;;;;;6.57;5.82;;;;;;;8.96;58.85;94687.13;5093968;28;20036;-82
2024/03/19 09:24:36;;;;;;;8.43;6.05;;;;;;;8.98;59.22;94701.16;5087909;28;20024;-82
2024/03/19 09:27:03;;;;;;;8.93;5.95;;;;;;;9.05;58.97;94700.19;5087457;28;20039;-81
2024/03/19 09:29:30;;;;;;;8.82;5.75;;;;;;;9.17;57.94;94704.19;5087205;28;20028;-82
2024/03/19 09:31:56;;;;;;;9.63;5.88;;;;;;;9.19;57.66;94705.31;5089819;28;20138;-81
2024/03/19 09:34:22;;;;;;;9.80;5.90;;;;;;;9.24;57.44;94702.03;5085599;28;20067;-82
2024/03/19 09:36:47;;;;;;;9.38;5.90;;;;;;;9.27;57.97;94709.38;5087089;28;20124;-80
2024/03/19 09:39:13;;;;;;;9.27;6.00;;;;;;;9.28;57.92;94716.41;5087243;28;20081;-81
2024/03/19 09:41:41;;;;;;;9.48;5.65;;;;;;;9.32;57.28;94703.38;5087792;28;20111;-81
2024/03/19 09:44:14;;;;;;;10.27;5.38;;;;;;;9.32;57.53;94717.09;5087897;28;20374;-83
2024/03/19 09:46:42;;;;;;;8.45;5.70;;;;;;;9.28;56.68;94699.94;5086869;28;20020;-82
2024/03/19 09:49:16;;;;;;;8.50;5.63;;;;;;;9.30;56.09;94713.25;5070173;28;20498;-83
2024/03/19 09:51:41;;;;;;;7.75;5.38;;;;;;;9.25;56.02;94711.03;5087061;28;20024;-82
2024/03/19 09:54:07;;;;;;;10.75;5.68;;;;;;;9.11;57.33;94720.41;5070100;28;20042;-82
2024/03/19 09:56:33;;;;;;;12.32;6.25;;;;;;;9.20;59.71;94719.78;5068589;28;20020;-82
2024/03/19 09:58:59;;;;;;;12.18;7.03;;;;;;;9.21;59.96;94724.81;5086296;28;20095;-83
2024/03/19 10:01:25;;;;;;;12.77;8.00;;;;;;;9.16;60.48;94719.09;5069132;28;20028;-82
2024/03/19 10:03:53;;;;;;;10.38;7.60;;;;;;;9.17;60.68;94710.44;5084184;28;20108;-82
2024/03/19 10:06:18;;;;;;;13.10;8.82;;;;;;;9.30;60.61;94708.53;5086662;28;20028;-83
2024/03/19 10:08:48;;;;;;;11.45;8.55;;;;;;;9.30;60.99;94714.00;5086019;28;20100;-81
2024/03/19 10:11:14;;;;;;;9.30;6.95;;;;;;;9.39;60.27;94718.84;5087735;28;20028;-81
2024/03/19 10:13:39;;;;;;;9.57;5.82;;;;;;;9.44;56.81;94712.06;5086209;28;20024;-82
2024/03/19 10:16:05;;;;;;;8.90;5.47;;;;;;;9.47;55.75;94714.72;5068988;28;20040;-82
2024/03/19 10:18:30;;;;;;;9.13;4.85;;;;;;;9.45;54.87;94713.59;5085328;28;20043;-83
2024/03/19 10:20:57;;;;;;;7.80;4.78;;;;;;;9.46;54.91;94721.44;5085128;28;20085;-84
2024/03/19 10:23:23;;;;;;;10.95;5.38;;;;;;;9.44;55.16;94704.59;5087665;28;20028;-81
2024/03/19 10:25:52;;;;;;;8.40;5.07;;;;;;;9.47;55.51;94705.72;5084944;28;20500;-83
2024/03/19 10:28:18;;;;;;;8.20;5.20;;;;;;;9.64;56.19;94704.44;5083982;28;20028;-89
2024/03/19 10:30:47;;;;;;;7.82;5.65;;;;;;;9.70;55.63;94708.19;5073352;28;20020;-83
2024/03/19 10:33:13;;;;;;;9.25;5.55;;;;;;;9.87;55.34;94699.88;5086064;28;20024;-81
2024/03/19 10:35:41;;;;;;;7.38;4.50;;;;;;;10.11;54.70;94703.84;5084820;28;20040;-81
2024/03/19 10:38:08;;;;;;;5.30;4.45;;;;;;;10.37;53.71;94708.13;5085437;28;20508;-81
2024/03/19 10:40:34;;;;;;;7.72;5.00;;;;;;;10.48;53.89;94698.78;5085914;28;20115;-83
2024/03/19 10:43:00;;;;;;;9.23;5.80;;;;;;;10.47;53.64;94680.75;5088966;28;20119;-80
2024/03/19 10:45:28;;;;;;;7.78;6.00;;;;;;;10.63;53.12;94688.88;5095011;28;20027;-79
2024/03/19 10:47:54;;;;;;;9.07;5.22;;;;;;;10.67;53.04;94686.78;5080900;28;20122;-82
2024/03/19 10:50:21;;;;;;;9.13;5.38;;;;;;;10.81;52.50;94700.03;5094576;28;20051;-80
2024/03/19 10:52:51;;;;;;;7.47;4.57;;;;;;;10.83;51.88;94685.84;5093471;28;20035;-80
2024/03/19 10:55:17;;;;;;;6.88;5.53;;;;;;;10.84;52.06;94685.41;5095139;28;20016;-81
2024/03/19 10:57:45;;;;;;;9.98;5.97;;;;;;;10.79;52.85;94685.97;5086956;28;20020;-80
2024/03/19 11:00:31;;;;;;;13.15;8.75;;;;;;;10.78;55.35;94684.44;5083744;28;20031;-81
2024/03/19 11:02:58;;;;;;;14.75;10.52;;;;;;;10.75;55.94;94688.06;5084384;28;20039;-81
2024/03/19 11:05:25;;;;;;;9.27;7.28;;;;;;;10.75;55.39;94679.06;5082442;28;20039;-81
2024/03/19 11:07:51;;;;;;;9.73;6.82;;;;;;;10.77;54.61;94680.13;5082554;28;20024;-81
2024/03/19 11:10:33;;;;;;;11.00;6.90;;;;;;;10.71;53.51;94673.66;5083065;28;20137;-82
2024/03/19 11:13:21;;;;;;;8.73;5.93;;;;;;;10.67;53.89;94669.50;5082799;28;20043;-80
2024/03/19 11:15:47;;;;;;;10.55;7.15;;;;;;;10.74;54.78;94675.53;5067157;28;20077;-80
2024/03/19 11:18:12;;;;;;;8.52;6.57;;;;;;;10.76;54.53;94675.84;5084515;28;20107;-82
2024/03/19 11:20:44;;;;;;;10.55;7.30;;;;;;;10.80;54.83;94670.25;5085131;28;20036;-82
2024/03/19 11:23:14;;;;;;;9.05;7.32;;;;;;;10.99;54.66;94668.41;5084276;28;20359;-80
2024/03/19 11:25:43;;;;;;;8.85;6.47;;;;;;;11.30;54.11;94663.78;5083779;28;20490;-80
2024/03/19 11:28:24;;;;;;;10.77;7.30;;;;;;;11.76;54.11;94669.56;5086259;28;20032;-82
2024/03/19 11:31:10;;;;;;;15.32;8.98;;;;;;;12.25;53.03;94657.88;5084536;28;20031;-82